Bloomfield Township, Michigan
Current Conditions -  °F | °C
As of 10:35 PM on Friday 19 Dec 2014 (Local Time) from KVLL Reporting Station
Clear Clear  
Wind Chill: 26°   Ceiling: Unl
Heat Index: 26°   Visibility: 10mi
Dew Point: 20°   Wind: 0mph
Humidity: 78%   Direction: NA
Pressure: 30.29"   Gusts: NA
Location:  42.5858°N, 83.2941°W
Report Text: KVLL 200335Z AUTO 00000KT 10SM CLR M03/M06 A3029 RMK AO2 T10311065
Loading
Personal Weather Stations






























Interactive Weather Map New forecast layout! Learn more

10-Day Weather Forecast

Advertisements
Track Severe Weather on mobile